sensor_id;sensor_type;location;lat;lon;timestamp;P1;durP1;ratioP1;P2;durP2;ratioP2
21274;SDS011;36472;52.170;20.884;2023-05-15T00:00:08;4.05;;;3.50;;
21274;SDS011;36472;52.170;20.884;2023-05-15T00:02:58;5.22;;;3.97;;
21274;SDS011;36472;52.170;20.884;2023-05-15T00:05:27;4.40;;;3.50;;
21274;SDS011;36472;52.170;20.884;2023-05-15T00:07:56;6.82;;;3.72;;
21274;SDS011;36472;52.170;20.884;2023-05-15T00:10:27;5.68;;;3.80;;
21274;SDS011;36472;52.170;20.884;2023-05-15T00:12:56;4.20;;;3.72;;
21274;SDS011;36472;52.170;20.884;2023-05-15T00:15:25;4.97;;;3.53;;
21274;SDS011;36472;52.170;20.884;2023-05-15T00:17:53;4.82;;;4.07;;
21274;SDS011;36472;52.170;20.884;2023-05-15T00:20:22;5.47;;;3.70;;
21274;SDS011;36472;52.170;20.884;2023-05-15T00:22:51;5.30;;;3.97;;
21274;SDS011;36472;52.170;20.884;2023-05-15T00:25:20;6.05;;;3.83;;
21274;SDS011;36472;52.170;20.884;2023-05-15T00:27:51;3.95;;;3.42;;
21274;SDS011;36472;52.170;20.884;2023-05-15T00:30:20;4.25;;;3.85;;
21274;SDS011;36472;52.170;20.884;2023-05-15T00:32:49;5.07;;;3.78;;
21274;SDS011;36472;52.170;20.884;2023-05-15T00:35:18;3.80;;;3.50;;
21274;SDS011;36472;52.170;20.884;2023-05-15T00:37:46;6.18;;;4.00;;
21274;SDS011;36472;52.170;20.884;2023-05-15T00:40:17;4.47;;;3.45;;
21274;SDS011;36472;52.170;20.884;2023-05-15T00:42:49;5.72;;;3.65;;
21274;SDS011;36472;52.170;20.884;2023-05-15T00:45:22;6.80;;;3.80;;
21274;SDS011;36472;52.170;20.884;2023-05-15T00:47:53;5.57;;;3.90;;
21274;SDS011;36472;52.170;20.884;2023-05-15T00:50:24;3.63;;;3.30;;
21274;SDS011;36472;52.170;20.884;2023-05-15T00:52:54;5.75;;;3.60;;
21274;SDS011;36472;52.170;20.884;2023-05-15T00:55:23;5.35;;;3.65;;
21274;SDS011;36472;52.170;20.884;2023-05-15T00:57:58;7.18;;;4.10;;
21274;SDS011;36472;52.170;20.884;2023-05-15T01:00:31;4.35;;;3.45;;
21274;SDS011;36472;52.170;20.884;2023-05-15T01:03:02;7.38;;;3.65;;
21274;SDS011;36472;52.170;20.884;2023-05-15T01:05:33;5.45;;;3.08;;
21274;SDS011;36472;52.170;20.884;2023-05-15T01:08:05;5.13;;;3.17;;
21274;SDS011;36472;52.170;20.884;2023-05-15T01:10:43;5.55;;;3.63;;
21274;SDS011;36472;52.170;20.884;2023-05-15T01:13:16;4.82;;;3.50;;
21274;SDS011;36472;52.170;20.884;2023-05-15T01:15:48;4.43;;;3.90;;
21274;SDS011;36472;52.170;20.884;2023-05-15T01:18:19;4.20;;;3.10;;
21274;SDS011;36472;52.170;20.884;2023-05-15T01:20:53;4.53;;;3.22;;
21274;SDS011;36472;52.170;20.884;2023-05-15T01:23:57;6.72;;;3.97;;
21274;SDS011;36472;52.170;20.884;2023-05-15T01:27:09;5.80;;;3.63;;
21274;SDS011;36472;52.170;20.884;2023-05-15T01:29:49;7.60;;;3.42;;
21274;SDS011;36472;52.170;20.884;2023-05-15T01:32:28;4.95;;;3.20;;
21274;SDS011;36472;52.170;20.884;2023-05-15T01:35:11;5.95;;;3.60;;
21274;SDS011;36472;52.170;20.884;2023-05-15T01:37:47;5.03;;;3.60;;
21274;SDS011;36472;52.170;20.884;2023-05-15T01:40:25;4.25;;;3.60;;
21274;SDS011;36472;52.170;20.884;2023-05-15T01:43:00;6.20;;;3.53;;
21274;SDS011;36472;52.170;20.884;2023-05-15T01:45:35;4.10;;;3.25;;
21274;SDS011;36472;52.170;20.884;2023-05-15T01:48:08;4.03;;;3.08;;
21274;SDS011;36472;52.170;20.884;2023-05-15T01:50:40;4.57;;;3.22;;
21274;SDS011;36472;52.170;20.884;2023-05-15T01:53:13;4.95;;;3.10;;
21274;SDS011;36472;52.170;20.884;2023-05-15T01:55:44;5.15;;;3.45;;
21274;SDS011;36472;52.170;20.884;2023-05-15T01:58:17;3.80;;;3.35;;
21274;SDS011;36472;52.170;20.884;2023-05-15T02:00:47;4.25;;;3.58;;
21274;SDS011;36472;52.170;20.884;2023-05-15T02:03:18;3.22;;;2.88;;
21274;SDS011;36472;52.170;20.884;2023-05-15T02:05:47;3.47;;;3.17;;
21274;SDS011;36472;52.170;20.884;2023-05-15T02:08:19;5.30;;;3.35;;
21274;SDS011;36472;52.170;20.884;2023-05-15T02:10:51;4.55;;;2.88;;
21274;SDS011;36472;52.170;20.884;2023-05-15T02:13:23;10.38;;;3.55;;
21274;SDS011;36472;52.170;20.884;2023-05-15T02:15:53;4.90;;;2.90;;
21274;SDS011;36472;52.170;20.884;2023-05-15T02:18:22;5.15;;;3.00;;
21274;SDS011;36472;52.170;20.884;2023-05-15T02:20:51;5.40;;;3.63;;
21274;SDS011;36472;52.170;20.884;2023-05-15T02:23:20;3.25;;;2.95;;
21274;SDS011;36472;52.170;20.884;2023-05-15T02:25:54;3.20;;;2.80;;
21274;SDS011;36472;52.170;20.884;2023-05-15T02:28:57;5.15;;;3.17;;
21274;SDS011;36472;52.170;20.884;2023-05-15T02:31:42;5.38;;;3.08;;
21274;SDS011;36472;52.170;20.884;2023-05-15T02:34:25;4.50;;;3.30;;
21274;SDS011;36472;52.170;20.884;2023-05-15T02:37:04;5.47;;;3.22;;
21274;SDS011;36472;52.170;20.884;2023-05-15T02:39:41;3.65;;;2.90;;
21274;SDS011;36472;52.170;20.884;2023-05-15T02:42:13;3.63;;;2.80;;
21274;SDS011;36472;52.170;20.884;2023-05-15T02:44:45;4.68;;;2.83;;
21274;SDS011;36472;52.170;20.884;2023-05-15T02:47:15;5.10;;;3.08;;
21274;SDS011;36472;52.170;20.884;2023-05-15T02:49:46;5.63;;;3.33;;
21274;SDS011;36472;52.170;20.884;2023-05-15T02:52:15;4.68;;;3.00;;
21274;SDS011;36472;52.170;20.884;2023-05-15T02:54:45;4.10;;;3.67;;
21274;SDS011;36472;52.170;20.884;2023-05-15T02:57:14;5.45;;;3.45;;
21274;SDS011;36472;52.170;20.884;2023-05-15T02:59:44;5.07;;;3.20;;
21274;SDS011;36472;52.170;20.884;2023-05-15T03:02:13;5.95;;;2.88;;
21274;SDS011;36472;52.170;20.884;2023-05-15T03:04:42;4.40;;;2.90;;
21274;SDS011;36472;52.170;20.884;2023-05-15T03:07:13;3.75;;;3.40;;
21274;SDS011;36472;52.170;20.884;2023-05-15T03:09:42;4.13;;;3.22;;
21274;SDS011;36472;52.170;20.884;2023-05-15T03:12:11;4.25;;;3.40;;
21274;SDS011;36472;52.170;20.884;2023-05-15T03:14:40;5.07;;;3.08;;
21274;SDS011;36472;52.170;20.884;2023-05-15T03:17:10;4.00;;;3.63;;
21274;SDS011;36472;52.170;20.884;2023-05-15T03:19:39;3.72;;;2.88;;
21274;SDS011;36472;52.170;20.884;2023-05-15T03:22:08;4.20;;;2.88;;
21274;SDS011;36472;52.170;20.884;2023-05-15T03:24:37;4.50;;;2.83;;
21274;SDS011;36472;52.170;20.884;2023-05-15T03:27:06;3.58;;;3.28;;
21274;SDS011;36472;52.170;20.884;2023-05-15T03:29:35;4.20;;;2.88;;
21274;SDS011;36472;52.170;20.884;2023-05-15T03:32:04;6.47;;;3.83;;
21274;SDS011;36472;52.170;20.884;2023-05-15T03:34:34;4.30;;;3.20;;
21274;SDS011;36472;52.170;20.884;2023-05-15T03:37:06;6.13;;;3.92;;
21274;SDS011;36472;52.170;20.884;2023-05-15T03:39:35;5.13;;;2.92;;
21274;SDS011;36472;52.170;20.884;2023-05-15T03:42:04;3.65;;;3.35;;
21274;SDS011;36472;52.170;20.884;2023-05-15T03:44:34;4.25;;;3.00;;
21274;SDS011;36472;52.170;20.884;2023-05-15T03:47:03;4.38;;;3.30;;
21274;SDS011;36472;52.170;20.884;2023-05-15T03:49:32;4.55;;;3.33;;
21274;SDS011;36472;52.170;20.884;2023-05-15T03:52:04;6.55;;;3.50;;
21274;SDS011;36472;52.170;20.884;2023-05-15T03:54:34;4.25;;;3.10;;
21274;SDS011;36472;52.170;20.884;2023-05-15T03:57:03;4.90;;;3.30;;
21274;SDS011;36472;52.170;20.884;2023-05-15T03:59:32;5.45;;;3.42;;
21274;SDS011;36472;52.170;20.884;2023-05-15T04:02:01;5.68;;;3.55;;
21274;SDS011;36472;52.170;20.884;2023-05-15T04:04:32;5.40;;;3.30;;
21274;SDS011;36472;52.170;20.884;2023-05-15T04:07:01;4.00;;;3.20;;
21274;SDS011;36472;52.170;20.884;2023-05-15T04:09:31;5.88;;;3.30;;
21274;SDS011;36472;52.170;20.884;2023-05-15T04:12:00;3.80;;;3.20;;
21274;SDS011;36472;52.170;20.884;2023-05-15T04:14:29;6.22;;;3.30;;
21274;SDS011;36472;52.170;20.884;2023-05-15T04:16:58;4.43;;;3.22;;
21274;SDS011;36472;52.170;20.884;2023-05-15T04:19:26;5.40;;;3.88;;
21274;SDS011;36472;52.170;20.884;2023-05-15T04:21:55;6.28;;;3.40;;
21274;SDS011;36472;52.170;20.884;2023-05-15T04:24:24;5.32;;;3.47;;
21274;SDS011;36472;52.170;20.884;2023-05-15T04:26:54;5.32;;;3.63;;
21274;SDS011;36472;52.170;20.884;2023-05-15T04:29:23;3.80;;;3.33;;
21274;SDS011;36472;52.170;20.884;2023-05-15T04:31:52;6.82;;;3.88;;
21274;SDS011;36472;52.170;20.884;2023-05-15T04:34:21;5.00;;;3.58;;
21274;SDS011;36472;52.170;20.884;2023-05-15T04:36:50;5.65;;;3.20;;
21274;SDS011;36472;52.170;20.884;2023-05-15T04:39:19;3.47;;;3.15;;
21274;SDS011;36472;52.170;20.884;2023-05-15T04:41:48;6.28;;;3.08;;
21274;SDS011;36472;52.170;20.884;2023-05-15T04:44:18;6.07;;;3.50;;
21274;SDS011;36472;52.170;20.884;2023-05-15T04:46:47;4.95;;;3.10;;
21274;SDS011;36472;52.170;20.884;2023-05-15T04:49:16;9.68;;;3.70;;
21274;SDS011;36472;52.170;20.884;2023-05-15T04:51:44;4.28;;;3.58;;
21274;SDS011;36472;52.170;20.884;2023-05-15T04:54:13;6.43;;;3.50;;
21274;SDS011;36472;52.170;20.884;2023-05-15T04:56:43;6.07;;;3.58;;
21274;SDS011;36472;52.170;20.884;2023-05-15T04:59:13;3.78;;;3.35;;
21274;SDS011;36472;52.170;20.884;2023-05-15T05:01:43;5.18;;;3.50;;
21274;SDS011;36472;52.170;20.884;2023-05-15T05:04:12;4.07;;;3.10;;
21274;SDS011;36472;52.170;20.884;2023-05-15T05:06:45;5.13;;;3.40;;
21274;SDS011;36472;52.170;20.884;2023-05-15T05:09:14;3.80;;;3.50;;
21274;SDS011;36472;52.170;20.884;2023-05-15T05:11:45;3.65;;;3.30;;
21274;SDS011;36472;52.170;20.884;2023-05-15T05:14:14;7.63;;;3.30;;
21274;SDS011;36472;52.170;20.884;2023-05-15T05:16:45;5.03;;;3.38;;
21274;SDS011;36472;52.170;20.884;2023-05-15T05:19:14;5.13;;;3.95;;
21274;SDS011;36472;52.170;20.884;2023-05-15T05:21:42;6.18;;;3.70;;
21274;SDS011;36472;52.170;20.884;2023-05-15T05:24:11;6.55;;;3.70;;
21274;SDS011;36472;52.170;20.884;2023-05-15T05:26:42;4.38;;;3.30;;
21274;SDS011;36472;52.170;20.884;2023-05-15T05:29:11;5.32;;;3.72;;
21274;SDS011;36472;52.170;20.884;2023-05-15T05:31:40;6.70;;;3.97;;
21274;SDS011;36472;52.170;20.884;2023-05-15T05:34:10;6.43;;;3.70;;
21274;SDS011;36472;52.170;20.884;2023-05-15T05:36:39;4.22;;;3.30;;
21274;SDS011;36472;52.170;20.884;2023-05-15T05:39:08;4.40;;;3.47;;
21274;SDS011;36472;52.170;20.884;2023-05-15T05:41:37;4.45;;;3.28;;
21274;SDS011;36472;52.170;20.884;2023-05-15T05:44:06;3.95;;;3.30;;
21274;SDS011;36472;52.170;20.884;2023-05-15T05:46:35;5.60;;;3.35;;
21274;SDS011;36472;52.170;20.884;2023-05-15T05:49:04;4.78;;;3.88;;
21274;SDS011;36472;52.170;20.884;2023-05-15T05:51:34;6.38;;;3.75;;
21274;SDS011;36472;52.170;20.884;2023-05-15T05:54:04;4.25;;;3.60;;
21274;SDS011;36472;52.170;20.884;2023-05-15T05:56:32;4.90;;;3.78;;
21274;SDS011;36472;52.170;20.884;2023-05-15T05:59:02;5.25;;;3.55;;
21274;SDS011;36472;52.170;20.884;2023-05-15T06:01:32;5.22;;;3.58;;
21274;SDS011;36472;52.170;20.884;2023-05-15T06:04:01;5.88;;;3.90;;
21274;SDS011;36472;52.170;20.884;2023-05-15T06:06:30;4.88;;;4.30;;
21274;SDS011;36472;52.170;20.884;2023-05-15T06:09:01;7.25;;;3.60;;
21274;SDS011;36472;52.170;20.884;2023-05-15T06:11:31;7.80;;;4.15;;
21274;SDS011;36472;52.170;20.884;2023-05-15T06:14:00;7.78;;;4.30;;
21274;SDS011;36472;52.170;20.884;2023-05-15T06:16:29;5.10;;;3.90;;
21274;SDS011;36472;52.170;20.884;2023-05-15T06:18:58;4.35;;;4.00;;
21274;SDS011;36472;52.170;20.884;2023-05-15T06:21:27;4.25;;;3.70;;
21274;SDS011;36472;52.170;20.884;2023-05-15T06:23:55;4.55;;;4.03;;
21274;SDS011;36472;52.170;20.884;2023-05-15T06:26:26;5.53;;;4.30;;
21274;SDS011;36472;52.170;20.884;2023-05-15T06:28:55;7.47;;;4.15;;
21274;SDS011;36472;52.170;20.884;2023-05-15T06:31:23;6.32;;;3.90;;
21274;SDS011;36472;52.170;20.884;2023-05-15T06:33:53;5.93;;;4.38;;
21274;SDS011;36472;52.170;20.884;2023-05-15T06:36:21;5.53;;;4.53;;
21274;SDS011;36472;52.170;20.884;2023-05-15T06:38:50;6.90;;;5.30;;
21274;SDS011;36472;52.170;20.884;2023-05-15T06:41:19;4.70;;;4.22;;
21274;SDS011;36472;52.170;20.884;2023-05-15T06:43:50;5.88;;;4.75;;
21274;SDS011;36472;52.170;20.884;2023-05-15T06:46:19;5.47;;;4.97;;
21274;SDS011;36472;52.170;20.884;2023-05-15T06:48:48;5.63;;;4.93;;
21274;SDS011;36472;52.170;20.884;2023-05-15T06:51:17;7.95;;;5.38;;
21274;SDS011;36472;52.170;20.884;2023-05-15T06:53:46;11.13;;;5.38;;
21274;SDS011;36472;52.170;20.884;2023-05-15T06:56:15;6.45;;;4.95;;
21274;SDS011;36472;52.170;20.884;2023-05-15T06:58:44;6.05;;;5.45;;
21274;SDS011;36472;52.170;20.884;2023-05-15T07:01:14;5.50;;;5.00;;
21274;SDS011;36472;52.170;20.884;2023-05-15T07:03:43;7.95;;;5.72;;
21274;SDS011;36472;52.170;20.884;2023-05-15T07:06:11;9.50;;;6.15;;
21274;SDS011;36472;52.170;20.884;2023-05-15T07:08:40;7.80;;;5.72;;
21274;SDS011;36472;52.170;20.884;2023-05-15T07:11:09;6.38;;;5.55;;
21274;SDS011;36472;52.170;20.884;2023-05-15T07:13:38;8.75;;;5.90;;
21274;SDS011;36472;52.170;20.884;2023-05-15T07:16:07;6.82;;;6.13;;
21274;SDS011;36472;52.170;20.884;2023-05-15T07:18:38;10.25;;;6.43;;
21274;SDS011;36472;52.170;20.884;2023-05-15T07:21:07;9.07;;;6.35;;
21274;SDS011;36472;52.170;20.884;2023-05-15T07:23:36;9.50;;;6.35;;
21274;SDS011;36472;52.170;20.884;2023-05-15T07:26:05;7.07;;;6.30;;
21274;SDS011;36472;52.170;20.884;2023-05-15T07:28:42;9.85;;;6.53;;
21274;SDS011;36472;52.170;20.884;2023-05-15T07:31:11;9.70;;;6.20;;
21274;SDS011;36472;52.170;20.884;2023-05-15T07:33:41;9.52;;;6.50;;
21274;SDS011;36472;52.170;20.884;2023-05-15T07:36:10;10.88;;;6.90;;
21274;SDS011;36472;52.170;20.884;2023-05-15T07:38:39;8.75;;;6.47;;
21274;SDS011;36472;52.170;20.884;2023-05-15T07:41:08;10.90;;;7.65;;
21274;SDS011;36472;52.170;20.884;2023-05-15T07:43:37;9.27;;;6.88;;
21274;SDS011;36472;52.170;20.884;2023-05-15T07:46:05;8.00;;;7.20;;
21274;SDS011;36472;52.170;20.884;2023-05-15T07:48:34;8.60;;;6.78;;
21274;SDS011;36472;52.170;20.884;2023-05-15T07:51:05;8.52;;;5.90;;
21274;SDS011;36472;52.170;20.884;2023-05-15T07:53:34;10.55;;;7.20;;
21274;SDS011;36472;52.170;20.884;2023-05-15T07:56:02;8.07;;;6.78;;
21274;SDS011;36472;52.170;20.884;2023-05-15T07:58:32;7.93;;;6.82;;
21274;SDS011;36472;52.170;20.884;2023-05-15T08:01:04;8.85;;;7.55;;
21274;SDS011;36472;52.170;20.884;2023-05-15T08:03:33;9.00;;;7.50;;
21274;SDS011;36472;52.170;20.884;2023-05-15T08:06:03;9.02;;;6.80;;
21274;SDS011;36472;52.170;20.884;2023-05-15T08:08:34;8.13;;;7.05;;
21274;SDS011;36472;52.170;20.884;2023-05-15T08:11:03;8.55;;;6.30;;
21274;SDS011;36472;52.170;20.884;2023-05-15T08:13:32;6.85;;;6.15;;
21274;SDS011;36472;52.170;20.884;2023-05-15T08:16:01;7.95;;;6.72;;
21274;SDS011;36472;52.170;20.884;2023-05-15T08:18:31;9.15;;;7.00;;
21274;SDS011;36472;52.170;20.884;2023-05-15T08:21:00;8.43;;;6.82;;
21274;SDS011;36472;52.170;20.884;2023-05-15T08:23:32;7.25;;;6.00;;
21274;SDS011;36472;52.170;20.884;2023-05-15T08:26:01;9.48;;;6.72;;
21274;SDS011;36472;52.170;20.884;2023-05-15T08:28:30;9.68;;;7.53;;
21274;SDS011;36472;52.170;20.884;2023-05-15T08:30:59;7.22;;;6.45;;
21274;SDS011;36472;52.170;20.884;2023-05-15T08:33:28;8.50;;;6.72;;
21274;SDS011;36472;52.170;20.884;2023-05-15T08:35:57;8.18;;;7.15;;
21274;SDS011;36472;52.170;20.884;2023-05-15T08:38:26;8.25;;;6.38;;
21274;SDS011;36472;52.170;20.884;2023-05-15T08:40:56;7.63;;;6.85;;
21274;SDS011;36472;52.170;20.884;2023-05-15T08:43:33;7.30;;;6.22;;
21274;SDS011;36472;52.170;20.884;2023-05-15T08:46:05;8.90;;;6.50;;
21274;SDS011;36472;52.170;20.884;2023-05-15T08:48:35;9.00;;;7.05;;
21274;SDS011;36472;52.170;20.884;2023-05-15T08:51:08;8.13;;;7.10;;
21274;SDS011;36472;52.170;20.884;2023-05-15T08:53:38;8.77;;;6.97;;
21274;SDS011;36472;52.170;20.884;2023-05-15T08:56:09;10.32;;;7.88;;
21274;SDS011;36472;52.170;20.884;2023-05-15T08:58:38;10.77;;;8.20;;
21274;SDS011;36472;52.170;20.884;2023-05-15T09:01:07;10.30;;;7.15;;
21274;SDS011;36472;52.170;20.884;2023-05-15T09:03:39;9.70;;;7.68;;
21274;SDS011;36472;52.170;20.884;2023-05-15T09:06:08;10.93;;;7.55;;
21274;SDS011;36472;52.170;20.884;2023-05-15T09:08:38;8.57;;;7.65;;
21274;SDS011;36472;52.170;20.884;2023-05-15T09:11:11;13.73;;;7.53;;
21274;SDS011;36472;52.170;20.884;2023-05-15T09:13:42;9.65;;;8.15;;
21274;SDS011;36472;52.170;20.884;2023-05-15T09:16:11;10.70;;;7.72;;
21274;SDS011;36472;52.170;20.884;2023-05-15T09:18:40;10.77;;;8.30;;
21274;SDS011;36472;52.170;20.884;2023-05-15T09:26:59;8.43;;;7.47;;
21274;SDS011;36472;52.170;20.884;2023-05-15T09:29:30;9.38;;;7.93;;
21274;SDS011;36472;52.170;20.884;2023-05-15T09:32:01;9.23;;;7.68;;
21274;SDS011;36472;52.170;20.884;2023-05-15T09:34:32;8.25;;;7.20;;
21274;SDS011;36472;52.170;20.884;2023-05-15T09:37:04;12.55;;;7.63;;
21274;SDS011;36472;52.170;20.884;2023-05-15T09:39:37;8.35;;;7.00;;
21274;SDS011;36472;52.170;20.884;2023-05-15T09:42:11;9.27;;;7.53;;
21274;SDS011;36472;52.170;20.884;2023-05-15T09:44:42;8.18;;;6.75;;
21274;SDS011;36472;52.170;20.884;2023-05-15T09:47:12;7.90;;;7.20;;
21274;SDS011;36472;52.170;20.884;2023-05-15T09:49:43;9.23;;;7.65;;
21274;SDS011;36472;52.170;20.884;2023-05-15T09:52:14;11.02;;;8.10;;
21274;SDS011;36472;52.170;20.884;2023-05-15T09:54:44;10.48;;;7.80;;
21274;SDS011;36472;52.170;20.884;2023-05-15T09:57:20;11.35;;;8.10;;
21274;SDS011;36472;52.170;20.884;2023-05-15T09:59:50;9.88;;;7.75;;
21274;SDS011;36472;52.170;20.884;2023-05-15T10:02:21;9.90;;;8.18;;
21274;SDS011;36472;52.170;20.884;2023-05-15T10:04:54;9.30;;;7.78;;
21274;SDS011;36472;52.170;20.884;2023-05-15T10:07:26;8.85;;;7.95;;
21274;SDS011;36472;52.170;20.884;2023-05-15T10:09:56;10.60;;;8.13;;
21274;SDS011;36472;52.170;20.884;2023-05-15T10:12:27;11.05;;;8.32;;
21274;SDS011;36472;52.170;20.884;2023-05-15T10:14:59;12.20;;;7.78;;
21274;SDS011;36472;52.170;20.884;2023-05-15T10:17:32;10.48;;;8.70;;
21274;SDS011;36472;52.170;20.884;2023-05-15T10:20:03;13.07;;;8.73;;
21274;SDS011;36472;52.170;20.884;2023-05-15T10:22:35;11.20;;;8.40;;
21274;SDS011;36472;52.170;20.884;2023-05-15T10:25:25;12.55;;;9.30;;
21274;SDS011;36472;52.170;20.884;2023-05-15T10:28:02;10.48;;;8.38;;
21274;SDS011;36472;52.170;20.884;2023-05-15T10:30:35;10.40;;;9.20;;
21274;SDS011;36472;52.170;20.884;2023-05-15T10:33:05;10.82;;;9.43;;
21274;SDS011;36472;52.170;20.884;2023-05-15T10:35:36;10.55;;;8.95;;
21274;SDS011;36472;52.170;20.884;2023-05-15T10:38:06;12.00;;;9.10;;
21274;SDS011;36472;52.170;20.884;2023-05-15T10:40:38;9.60;;;8.60;;
21274;SDS011;36472;52.170;20.884;2023-05-15T10:43:10;9.48;;;8.52;;
21274;SDS011;36472;52.170;20.884;2023-05-15T10:45:41;9.57;;;8.23;;
21274;SDS011;36472;52.170;20.884;2023-05-15T10:48:11;9.38;;;8.43;;
21274;SDS011;36472;52.170;20.884;2023-05-15T10:50:42;10.27;;;8.52;;
21274;SDS011;36472;52.170;20.884;2023-05-15T10:53:11;11.23;;;8.15;;
21274;SDS011;36472;52.170;20.884;2023-05-15T10:55:42;11.93;;;8.25;;
21274;SDS011;36472;52.170;20.884;2023-05-15T10:58:13;8.95;;;8.05;;
21274;SDS011;36472;52.170;20.884;2023-05-15T11:00:43;10.63;;;8.70;;
21274;SDS011;36472;52.170;20.884;2023-05-15T11:03:12;11.57;;;8.48;;
21274;SDS011;36472;52.170;20.884;2023-05-15T11:08:37;9.93;;;7.97;;
21274;SDS011;36472;52.170;20.884;2023-05-15T11:11:07;9.10;;;8.00;;
21274;SDS011;36472;52.170;20.884;2023-05-15T11:17:00;10.57;;;7.70;;
21274;SDS011;36472;52.170;20.884;2023-05-15T11:19:32;9.80;;;7.72;;
21274;SDS011;36472;52.170;20.884;2023-05-15T11:22:25;11.27;;;8.13;;
21274;SDS011;36472;52.170;20.884;2023-05-15T11:24:57;8.18;;;7.38;;
21274;SDS011;36472;52.170;20.884;2023-05-15T11:27:29;8.32;;;7.47;;
21274;SDS011;36472;52.170;20.884;2023-05-15T11:30:08;9.52;;;7.80;;
21274;SDS011;36472;52.170;20.884;2023-05-15T11:35:30;7.95;;;7.15;;
21274;SDS011;36472;52.170;20.884;2023-05-15T11:38:02;7.95;;;7.15;;
21274;SDS011;36472;52.170;20.884;2023-05-15T11:40:44;8.93;;;7.95;;
21274;SDS011;36472;52.170;20.884;2023-05-15T11:43:19;7.38;;;6.65;;
21274;SDS011;36472;52.170;20.884;2023-05-15T11:45:52;7.57;;;6.88;;
21274;SDS011;36472;52.170;20.884;2023-05-15T11:48:24;9.52;;;7.18;;
21274;SDS011;36472;52.170;20.884;2023-05-15T11:50:59;9.68;;;7.50;;
21274;SDS011;36472;52.170;20.884;2023-05-15T11:53:31;8.45;;;7.70;;
21274;SDS011;36472;52.170;20.884;2023-05-15T11:56:00;8.25;;;7.45;;
21274;SDS011;36472;52.170;20.884;2023-05-15T11:58:29;7.75;;;7.05;;
21274;SDS011;36472;52.170;20.884;2023-05-15T12:00:59;7.95;;;7.03;;
21274;SDS011;36472;52.170;20.884;2023-05-15T12:03:31;7.18;;;6.47;;
21274;SDS011;36472;52.170;20.884;2023-05-15T12:06:02;8.65;;;7.28;;
21274;SDS011;36472;52.170;20.884;2023-05-15T12:08:32;8.50;;;7.60;;
21274;SDS011;36472;52.170;20.884;2023-05-15T12:11:03;7.78;;;7.00;;
21274;SDS011;36472;52.170;20.884;2023-05-15T12:13:33;8.60;;;7.80;;
21274;SDS011;36472;52.170;20.884;2023-05-15T12:16:04;8.40;;;7.60;;
21274;SDS011;36472;52.170;20.884;2023-05-15T12:18:33;8.07;;;7.30;;
21274;SDS011;36472;52.170;20.884;2023-05-15T12:21:02;9.38;;;7.97;;
21274;SDS011;36472;52.170;20.884;2023-05-15T12:23:32;8.27;;;7.43;;
21274;SDS011;36472;52.170;20.884;2023-05-15T12:26:01;7.85;;;7.15;;
21274;SDS011;36472;52.170;20.884;2023-05-15T12:28:32;9.85;;;7.20;;
21274;SDS011;36472;52.170;20.884;2023-05-15T12:31:03;7.90;;;7.20;;
21274;SDS011;36472;52.170;20.884;2023-05-15T12:33:33;8.25;;;7.55;;
21274;SDS011;36472;52.170;20.884;2023-05-15T12:36:02;8.75;;;7.15;;
21274;SDS011;36472;52.170;20.884;2023-05-15T12:38:31;8.27;;;7.50;;
21274;SDS011;36472;52.170;20.884;2023-05-15T12:41:00;7.30;;;6.60;;
21274;SDS011;36472;52.170;20.884;2023-05-15T12:43:30;8.57;;;7.47;;
21274;SDS011;36472;52.170;20.884;2023-05-15T12:45:59;7.93;;;7.22;;
21274;SDS011;36472;52.170;20.884;2023-05-15T12:48:30;8.75;;;7.47;;
21274;SDS011;36472;52.170;20.884;2023-05-15T12:51:03;7.95;;;7.03;;
21274;SDS011;36472;52.170;20.884;2023-05-15T12:53:34;8.35;;;7.65;;
21274;SDS011;36472;52.170;20.884;2023-05-15T12:56:06;8.85;;;7.90;;
21274;SDS011;36472;52.170;20.884;2023-05-15T12:58:37;8.70;;;7.80;;
21274;SDS011;36472;52.170;20.884;2023-05-15T13:01:05;9.10;;;8.25;;
21274;SDS011;36472;52.170;20.884;2023-05-15T13:03:37;9.23;;;8.35;;
21274;SDS011;36472;52.170;20.884;2023-05-15T13:06:06;10.02;;;8.68;;
21274;SDS011;36472;52.170;20.884;2023-05-15T13:08:38;9.32;;;8.48;;
21274;SDS011;36472;52.170;20.884;2023-05-15T13:11:10;9.73;;;8.93;;
21274;SDS011;36472;52.170;20.884;2023-05-15T13:13:41;10.00;;;9.13;;
21274;SDS011;36472;52.170;20.884;2023-05-15T13:16:19;9.40;;;8.57;;
21274;SDS011;36472;52.170;20.884;2023-05-15T13:18:50;9.40;;;8.52;;
21274;SDS011;36472;52.170;20.884;2023-05-15T13:21:19;8.98;;;8.18;;
21274;SDS011;36472;52.170;20.884;2023-05-15T13:23:48;8.98;;;8.18;;
21274;SDS011;36472;52.170;20.884;2023-05-15T13:26:18;10.10;;;8.30;;
21274;SDS011;36472;52.170;20.884;2023-05-15T13:28:47;10.00;;;9.00;;
21274;SDS011;36472;52.170;20.884;2023-05-15T13:31:16;10.02;;;9.05;;
21274;SDS011;36472;52.170;20.884;2023-05-15T13:33:45;10.65;;;9.65;;
21274;SDS011;36472;52.170;20.884;2023-05-15T13:36:16;9.60;;;8.60;;
21274;SDS011;36472;52.170;20.884;2023-05-15T13:38:45;9.77;;;8.88;;
21274;SDS011;36472;52.170;20.884;2023-05-15T13:41:13;9.93;;;8.93;;
21274;SDS011;36472;52.170;20.884;2023-05-15T13:43:42;9.63;;;8.73;;
21274;SDS011;36472;52.170;20.884;2023-05-15T13:46:13;9.25;;;8.38;;
21274;SDS011;36472;52.170;20.884;2023-05-15T13:48:42;10.13;;;9.13;;
21274;SDS011;36472;52.170;20.884;2023-05-15T13:51:11;10.90;;;9.43;;
21274;SDS011;36472;52.170;20.884;2023-05-15T13:53:41;10.45;;;9.35;;
21274;SDS011;36472;52.170;20.884;2023-05-15T13:56:10;12.50;;;9.07;;
21274;SDS011;36472;52.170;20.884;2023-05-15T13:58:39;9.65;;;8.65;;
21274;SDS011;36472;52.170;20.884;2023-05-15T14:01:08;11.68;;;8.88;;
21274;SDS011;36472;52.170;20.884;2023-05-15T14:03:38;10.48;;;9.45;;
21274;SDS011;36472;52.170;20.884;2023-05-15T14:06:06;10.10;;;9.05;;
21274;SDS011;36472;52.170;20.884;2023-05-15T14:08:36;10.27;;;8.93;;
21274;SDS011;36472;52.170;20.884;2023-05-15T14:11:06;11.63;;;9.95;;
21274;SDS011;36472;52.170;20.884;2023-05-15T14:13:35;10.25;;;8.60;;
21274;SDS011;36472;52.170;20.884;2023-05-15T14:16:04;9.13;;;8.27;;
21274;SDS011;36472;52.170;20.884;2023-05-15T14:18:34;9.75;;;8.75;;
21274;SDS011;36472;52.170;20.884;2023-05-15T14:21:03;10.70;;;8.63;;
21274;SDS011;36472;52.170;20.884;2023-05-15T14:23:32;10.48;;;8.60;;
21274;SDS011;36472;52.170;20.884;2023-05-15T14:26:01;9.25;;;8.07;;
21274;SDS011;36472;52.170;20.884;2023-05-15T14:28:31;10.75;;;8.35;;
21274;SDS011;36472;52.170;20.884;2023-05-15T14:31:00;8.75;;;7.82;;
21274;SDS011;36472;52.170;20.884;2023-05-15T14:33:29;8.50;;;7.60;;
21274;SDS011;36472;52.170;20.884;2023-05-15T14:35:58;8.80;;;7.88;;
21274;SDS011;36472;52.170;20.884;2023-05-15T14:38:27;9.95;;;7.93;;
21274;SDS011;36472;52.170;20.884;2023-05-15T14:40:56;11.27;;;7.90;;
21274;SDS011;36472;52.170;20.884;2023-05-15T14:43:25;9.60;;;8.05;;
21274;SDS011;36472;52.170;20.884;2023-05-15T14:45:56;9.32;;;8.27;;
21274;SDS011;36472;52.170;20.884;2023-05-15T14:48:25;10.60;;;9.48;;
21274;SDS011;36472;52.170;20.884;2023-05-15T14:50:55;9.48;;;8.38;;
21274;SDS011;36472;52.170;20.884;2023-05-15T14:53:25;9.02;;;7.85;;
21274;SDS011;36472;52.170;20.884;2023-05-15T14:55:54;8.43;;;7.63;;
21274;SDS011;36472;52.170;20.884;2023-05-15T14:58:24;9.70;;;8.70;;
21274;SDS011;36472;52.170;20.884;2023-05-15T15:00:53;8.65;;;7.75;;
21274;SDS011;36472;52.170;20.884;2023-05-15T15:03:24;9.15;;;7.88;;
21274;SDS011;36472;52.170;20.884;2023-05-15T15:05:55;13.55;;;8.55;;
21274;SDS011;36472;52.170;20.884;2023-05-15T15:08:24;11.95;;;8.63;;